createdAt,value
2018-11-02T00:01:09.104Z,15.12
2018-11-02T00:03:38.778Z,15.09
2018-11-02T00:06:08.933Z,15.12
2018-11-02T00:08:39.254Z,15.11
2018-11-02T00:11:09.038Z,15.10
2018-11-02T00:13:38.773Z,15.12
2018-11-02T00:16:08.593Z,15.14
2018-11-02T00:18:38.303Z,15.14
2018-11-02T00:21:08.042Z,15.10
2018-11-02T00:23:37.986Z,15.18
2018-11-02T00:26:07.974Z,15.10
2018-11-02T00:28:37.749Z,15.11
2018-11-02T00:31:07.898Z,15.08
2018-11-02T00:33:37.454Z,15.05
2018-11-02T00:36:07.096Z,15.09
2018-11-02T00:38:36.839Z,15.11
2018-11-02T00:41:06.526Z,15.12
2018-11-02T00:43:36.405Z,15.09
2018-11-02T00:46:07.070Z,15.12
2018-11-02T00:48:36.961Z,15.09
2018-11-02T00:51:06.736Z,15.07
2018-11-02T00:53:36.853Z,15.05
2018-11-02T00:56:06.907Z,15.05
2018-11-02T00:58:36.610Z,15.09
2018-11-02T01:01:06.774Z,15.06
2018-11-02T01:03:36.308Z,15.06
2018-11-02T01:06:05.969Z,15.06
2018-11-02T01:08:36.071Z,15.07
2018-11-02T01:11:06.117Z,15.12
2018-11-02T01:13:35.728Z,15.08
2018-11-02T01:16:05.786Z,15.09
2018-11-02T01:18:35.532Z,15.04
2018-11-02T01:21:05.271Z,14.99
2018-11-02T01:23:35.279Z,15.00
2018-11-02T01:26:05.094Z,15.00
2018-11-02T01:28:34.716Z,14.96
2018-11-02T01:31:04.798Z,14.95
2018-11-02T01:33:37.122Z,14.97
2018-11-02T01:36:09.080Z,14.93
2018-11-02T01:38:45.169Z,14.84
2018-11-02T01:41:14.693Z,14.86
2018-11-02T01:43:44.324Z,14.83
2018-11-02T01:46:13.838Z,14.85
2018-11-02T01:48:43.965Z,14.85
2018-11-02T01:51:13.755Z,14.78
2018-11-02T01:53:43.888Z,14.80
2018-11-02T01:56:14.036Z,14.79
2018-11-02T01:58:43.845Z,14.77
2018-11-02T02:01:13.784Z,14.74
2018-11-02T02:03:43.775Z,14.71
2018-11-02T02:06:13.693Z,14.70
2018-11-02T02:08:43.961Z,14.76
2018-11-02T02:11:13.710Z,14.82
2018-11-02T02:13:43.474Z,14.76
2018-11-02T02:16:13.816Z,14.73
2018-11-02T02:18:43.855Z,14.65
2018-11-02T02:21:13.777Z,14.56
2018-11-02T02:23:43.922Z,14.56
2018-11-02T02:26:13.716Z,14.57
2018-11-02T02:28:43.542Z,14.67
2018-11-02T02:31:13.662Z,14.59
2018-11-02T02:33:43.418Z,14.55
2018-11-02T02:36:13.106Z,14.50
2018-11-02T02:38:43.114Z,14.49
2018-11-02T02:41:12.880Z,14.45
2018-11-02T02:43:42.638Z,14.43
2018-11-02T02:46:12.612Z,14.41
2018-11-02T02:48:42.627Z,14.39
2018-11-02T02:51:12.616Z,14.37
2018-11-02T02:53:42.806Z,14.42
2018-11-02T02:56:12.885Z,14.40
2018-11-02T02:58:42.919Z,14.43
2018-11-02T03:01:12.904Z,14.40
2018-11-02T03:03:42.931Z,14.39
2018-11-02T03:06:12.873Z,14.32
2018-11-02T03:08:42.761Z,14.29
2018-11-02T03:11:12.960Z,14.33
2018-11-02T03:13:42.993Z,14.31
2018-11-02T03:16:12.767Z,14.33
2018-11-02T03:18:42.408Z,14.23
2018-11-02T03:21:12.064Z,14.25
2018-11-02T03:23:41.674Z,14.21
2018-11-02T03:26:11.161Z,14.21
2018-11-02T03:28:40.636Z,14.17
2018-11-02T03:31:10.241Z,14.17
2018-11-02T03:33:39.948Z,14.18
2018-11-02T03:36:09.957Z,14.19
2018-11-02T03:38:39.846Z,14.11
2018-11-02T03:41:09.374Z,14.12
2018-11-02T03:43:39.053Z,14.16
2018-11-02T03:46:08.845Z,14.09
2018-11-02T03:48:39.120Z,14.08
2018-11-02T03:51:08.982Z,13.96
2018-11-02T03:53:38.729Z,13.98
2018-11-02T03:56:08.833Z,13.94
2018-11-02T03:58:38.724Z,13.95
2018-11-02T04:01:08.533Z,13.88
2018-11-02T04:03:38.217Z,13.90
2018-11-02T04:06:08.121Z,13.87
2018-11-02T04:08:37.879Z,13.83
2018-11-02T04:11:07.399Z,13.84
2018-11-02T04:13:37.440Z,13.79
2018-11-02T04:16:07.142Z,13.80
2018-11-02T04:18:36.829Z,13.79
2018-11-02T04:21:06.625Z,13.79
2018-11-02T04:23:36.546Z,13.80
2018-11-02T04:26:07.018Z,13.84
2018-11-02T04:28:36.801Z,13.81
2018-11-02T04:31:06.763Z,13.73
2018-11-02T04:33:36.122Z,13.72
2018-11-02T04:36:05.989Z,13.75
2018-11-02T04:38:35.982Z,13.73
2018-11-02T04:41:05.605Z,13.74
2018-11-02T04:43:35.495Z,13.74
2018-11-02T04:46:05.250Z,13.69
2018-11-02T04:48:34.742Z,13.68
2018-11-02T04:51:04.707Z,13.74
2018-11-02T04:53:34.327Z,13.80
2018-11-02T04:56:03.940Z,13.79
2018-11-02T04:58:33.850Z,13.78
2018-11-02T05:01:03.636Z,13.79
2018-11-02T05:03:33.655Z,13.71
2018-11-02T05:06:03.306Z,13.73
2018-11-02T05:08:33.055Z,13.76
2018-11-02T05:11:02.693Z,13.75
2018-11-02T05:13:32.188Z,13.74
2018-11-02T05:16:02.272Z,13.74
2018-11-02T05:18:31.890Z,13.80
2018-11-02T05:21:01.621Z,13.78
2018-11-02T05:23:31.590Z,13.73
2018-11-02T05:26:01.387Z,13.68
2018-11-02T05:28:31.103Z,13.65
2018-11-02T05:31:00.737Z,13.67
2018-11-02T05:33:30.545Z,13.66
2018-11-02T05:36:00.225Z,13.68
2018-11-02T05:38:30.036Z,13.69
2018-11-02T05:40:59.668Z,13.67
2018-11-02T05:43:29.385Z,13.74
2018-11-02T05:45:58.974Z,13.86
2018-11-02T05:48:28.880Z,13.92
2018-11-02T05:50:58.669Z,13.87
2018-11-02T05:53:28.983Z,13.81
2018-11-02T05:55:58.958Z,13.79
2018-11-02T05:58:28.853Z,13.85
2018-11-02T06:00:58.362Z,13.78
2018-11-02T06:03:28.083Z,13.82
2018-11-02T06:05:58.074Z,13.93
2018-11-02T06:08:27.727Z,13.93
2018-11-02T06:10:57.247Z,14.02
2018-11-02T06:13:27.196Z,13.96
2018-11-02T06:15:56.860Z,13.87
2018-11-02T06:18:27.162Z,13.90
2018-11-02T06:20:56.891Z,13.91
2018-11-02T06:23:26.761Z,13.91
2018-11-02T06:25:56.245Z,13.98
2018-11-02T06:28:25.781Z,13.98
2018-11-02T06:30:55.825Z,14.00
2018-11-02T06:33:25.630Z,14.02
2018-11-02T06:35:57.206Z,14.00
2018-11-02T06:38:26.916Z,14.11
2018-11-02T06:40:56.683Z,14.07
2018-11-02T06:43:26.251Z,14.03
2018-11-02T06:45:55.814Z,14.09
2018-11-02T06:48:25.646Z,14.14
2018-11-02T06:50:55.394Z,14.14
2018-11-02T06:53:25.145Z,14.16
2018-11-02T06:55:55.078Z,14.19
2018-11-02T06:58:24.880Z,14.23
2018-11-02T07:00:54.909Z,14.27
2018-11-02T07:03:24.715Z,14.29
2018-11-02T07:05:54.536Z,14.33
2018-11-02T07:08:24.413Z,14.38
2018-11-02T07:10:54.042Z,14.42
2018-11-02T07:13:23.990Z,14.39
2018-11-02T07:15:53.762Z,14.55
2018-11-02T07:18:23.516Z,14.56
2018-11-02T07:20:53.383Z,14.56
2018-11-02T07:23:23.050Z,14.55
2018-11-02T07:25:53.177Z,14.68
2018-11-02T07:28:22.929Z,14.77
2018-11-02T07:30:52.570Z,14.84
2018-11-02T07:33:23.338Z,14.91
2018-11-02T07:35:53.114Z,15.05
2018-11-02T07:38:23.100Z,15.08
2018-11-02T07:40:52.778Z,15.21
2018-11-02T07:43:22.523Z,15.19
2018-11-02T07:45:52.166Z,15.32
2018-11-02T07:48:21.861Z,15.43
2018-11-02T07:50:51.711Z,15.34
2018-11-02T07:53:21.282Z,15.57
2018-11-02T07:55:50.978Z,15.88
2018-11-02T07:58:20.619Z,16.06
2018-11-02T08:00:50.497Z,16.30
2018-11-02T08:03:20.173Z,16.49
2018-11-02T08:05:49.942Z,16.64
2018-11-02T08:08:19.542Z,16.75
2018-11-02T08:10:49.052Z,17.11
2018-11-02T08:13:18.676Z,17.28
2018-11-02T08:15:48.489Z,17.27
2018-11-02T08:18:19.740Z,17.26
2018-11-02T08:20:49.265Z,17.32
2018-11-02T08:23:19.118Z,17.40
2018-11-02T08:25:48.953Z,17.46
2018-11-02T08:28:18.778Z,17.43
2018-11-02T08:30:48.450Z,17.61
2018-11-02T08:33:19.466Z,17.25
2018-11-02T08:35:49.511Z,17.10
2018-11-02T08:38:19.285Z,17.13
2018-11-02T08:40:49.170Z,17.43
2018-11-02T08:43:18.881Z,17.65
2018-11-02T08:45:48.615Z,17.88
2018-11-02T08:48:19.718Z,18.07
2018-11-02T08:50:49.441Z,18.29
2018-11-02T08:53:19.043Z,18.56
2018-11-02T08:55:48.858Z,18.65
2018-11-02T08:58:18.508Z,18.78
2018-11-02T09:00:48.397Z,18.80
2018-11-02T09:03:17.780Z,19.14
2018-11-02T09:05:47.716Z,19.33
2018-11-02T09:08:17.194Z,19.53
2018-11-02T09:10:47.025Z,19.40
2018-11-02T09:13:16.355Z,19.41
2018-11-02T09:15:46.033Z,19.48
2018-11-02T09:18:15.490Z,19.28
2018-11-02T09:20:45.299Z,19.35
2018-11-02T09:23:14.945Z,19.01
2018-11-02T09:25:44.838Z,19.53
2018-11-02T09:28:14.186Z,19.86
2018-11-02T09:30:43.906Z,19.91
2018-11-02T09:33:13.437Z,20.07
2018-11-02T09:35:43.101Z,20.36
2018-11-02T09:38:13.143Z,20.72
2018-11-02T09:40:42.688Z,21.01
2018-11-02T09:43:12.650Z,21.14
2018-11-02T09:45:42.367Z,21.09
2018-11-02T09:48:12.080Z,21.30
2018-11-02T09:50:42.002Z,21.47
2018-11-02T09:53:11.763Z,21.73
2018-11-02T09:55:41.301Z,22.03
2018-11-02T09:58:10.709Z,21.85
2018-11-02T10:00:40.534Z,22.01
2018-11-02T10:03:10.035Z,22.05
2018-11-02T10:05:39.590Z,21.75
2018-11-02T10:08:09.078Z,21.99
2018-11-02T10:10:38.873Z,21.89
2018-11-02T10:13:08.638Z,21.70
2018-11-02T10:15:38.693Z,21.85
2018-11-02T10:18:08.381Z,22.04
2018-11-02T10:20:38.100Z,22.39
2018-11-02T10:23:07.867Z,22.43
2018-11-02T10:25:37.455Z,22.35
2018-11-02T10:28:07.249Z,22.23
2018-11-02T10:30:36.936Z,22.26
2018-11-02T10:33:06.593Z,22.23
2018-11-02T10:35:36.669Z,22.19
2018-11-02T10:38:06.405Z,22.25
2018-11-02T10:40:37.100Z,22.44
2018-11-02T10:43:09.039Z,22.39
2018-11-02T10:45:42.319Z,22.28
2018-11-02T10:48:12.522Z,22.26
2018-11-02T10:50:42.395Z,22.48
2018-11-02T10:53:12.202Z,22.15
2018-11-02T10:55:42.872Z,21.91
2018-11-02T10:58:12.756Z,22.01
2018-11-02T11:00:47.673Z,22.18
2018-11-02T11:03:17.018Z,22.40
2018-11-02T11:05:46.898Z,22.43
2018-11-02T11:08:20.213Z,22.57
2018-11-02T11:10:50.119Z,22.78
2018-11-02T11:13:20.361Z,23.03
2018-11-02T11:15:49.842Z,23.38
2018-11-02T11:18:19.361Z,23.43
2018-11-02T11:20:49.028Z,23.52
2018-11-02T11:23:18.355Z,23.57
2018-11-02T11:25:48.196Z,23.79
2018-11-02T11:28:17.685Z,23.82
2018-11-02T11:30:47.332Z,23.73
2018-11-02T11:33:16.830Z,23.79
2018-11-02T11:35:46.694Z,23.61
2018-11-02T11:38:16.318Z,23.36
2018-11-02T11:40:46.082Z,23.39
2018-11-02T11:43:15.519Z,23.85
2018-11-02T11:45:45.347Z,23.87
2018-11-02T11:48:14.849Z,24.34
2018-11-02T11:50:44.586Z,24.65
2018-11-02T11:53:14.031Z,24.74
2018-11-02T11:55:43.861Z,24.92
2018-11-02T11:58:13.526Z,24.96
2018-11-02T12:00:43.318Z,25.18
2018-11-02T12:03:12.844Z,25.63
2018-11-02T12:05:42.629Z,26.32
2018-11-02T12:08:12.582Z,26.03
2018-11-02T12:10:42.366Z,26.46
2018-11-02T12:13:12.277Z,27.07
2018-11-02T12:15:42.217Z,27.33
2018-11-02T12:18:12.139Z,27.44
2018-11-02T12:20:41.754Z,27.41
2018-11-02T12:23:11.436Z,27.29
2018-11-02T12:25:40.962Z,27.22
2018-11-02T12:28:10.883Z,27.90
2018-11-02T12:30:40.376Z,28.08
2018-11-02T12:33:09.935Z,26.85
2018-11-02T12:35:39.613Z,27.00
2018-11-02T12:38:09.501Z,27.35
2018-11-02T12:40:39.107Z,28.28
2018-11-02T12:43:08.783Z,27.57
2018-11-02T12:48:06.964Z,28.79
2018-11-02T12:50:36.659Z,29.09
2018-11-02T12:53:06.570Z,28.36
2018-11-02T12:55:36.681Z,28.64
2018-11-02T12:58:06.557Z,28.90
2018-11-02T13:00:36.306Z,28.91
2018-11-02T13:03:06.137Z,28.98
2018-11-02T13:05:35.806Z,28.14
2018-11-02T13:08:05.603Z,28.72
2018-11-02T13:10:35.508Z,28.33
2018-11-02T13:13:05.342Z,28.16
2018-11-02T13:15:34.959Z,27.98
2018-11-02T13:18:04.687Z,27.24
2018-11-02T13:20:34.438Z,26.88
2018-11-02T13:23:04.430Z,26.35
2018-11-02T13:25:34.518Z,26.02
2018-11-02T13:28:04.234Z,25.85
2018-11-02T13:30:33.759Z,25.79
2018-11-02T13:33:03.510Z,25.76
2018-11-02T13:35:33.383Z,26.09
2018-11-02T13:38:02.873Z,26.41
2018-11-02T13:40:32.706Z,26.61
2018-11-02T13:43:02.547Z,26.09
2018-11-02T13:45:32.311Z,26.43
2018-11-02T13:48:02.454Z,26.26
2018-11-02T13:50:32.107Z,26.40
2018-11-02T13:53:01.653Z,26.19
2018-11-02T13:55:31.693Z,26.15
2018-11-02T13:58:01.267Z,25.69
2018-11-02T14:00:30.881Z,25.49
2018-11-02T14:03:00.780Z,25.45
2018-11-02T14:05:30.386Z,25.60
2018-11-02T14:07:59.853Z,25.38
2018-11-02T14:10:29.709Z,25.03
2018-11-02T14:12:59.646Z,24.68
2018-11-02T14:15:29.569Z,24.42
2018-11-02T14:17:59.463Z,24.08
2018-11-02T14:20:29.289Z,24.01
2018-11-02T14:22:59.100Z,23.80
2018-11-02T14:25:28.845Z,23.73
2018-11-02T14:27:58.825Z,23.21
2018-11-02T14:30:28.445Z,22.86
2018-11-02T14:32:58.415Z,22.65
2018-11-02T14:35:27.945Z,22.52
2018-11-02T14:37:57.613Z,22.30
2018-11-02T14:40:27.481Z,22.21
2018-11-02T14:42:57.380Z,22.04
2018-11-02T14:45:27.431Z,21.83
2018-11-02T14:47:57.118Z,21.60
2018-11-02T14:50:26.922Z,21.36
2018-11-02T14:52:57.461Z,21.30
2018-11-02T14:55:27.061Z,21.20
2018-11-02T14:57:56.943Z,21.11
2018-11-02T15:00:26.637Z,20.84
2018-11-02T15:02:56.419Z,20.69
2018-11-02T15:05:26.038Z,20.55
2018-11-02T15:07:55.610Z,20.42
2018-11-02T15:10:25.708Z,20.37
2018-11-02T15:12:55.569Z,20.28
2018-11-02T15:15:25.355Z,20.19
2018-11-02T15:17:54.967Z,20.07
2018-11-02T15:20:24.629Z,20.03
2018-11-02T15:22:54.243Z,19.91
2018-11-02T15:25:23.993Z,19.86
2018-11-02T15:27:53.597Z,19.74
2018-11-02T15:30:23.433Z,19.70
2018-11-02T15:32:53.227Z,19.66
2018-11-02T15:35:23.398Z,19.47
2018-11-02T15:37:53.277Z,19.51
2018-11-02T15:40:23.187Z,19.37
2018-11-02T15:42:52.958Z,19.32
2018-11-02T15:45:22.518Z,19.38
2018-11-02T15:47:52.863Z,19.23
2018-11-02T15:50:22.458Z,19.18
2018-11-02T15:52:52.347Z,19.10
2018-11-02T15:55:21.978Z,19.09
2018-11-02T15:57:51.599Z,18.97
2018-11-02T16:00:21.962Z,19.03
2018-11-02T16:02:52.581Z,18.78
2018-11-02T16:05:22.438Z,18.77
2018-11-02T16:07:52.257Z,18.67
2018-11-02T16:10:22.181Z,18.64
2018-11-02T16:12:51.789Z,18.66
2018-11-02T16:15:21.601Z,18.53
2018-11-02T16:17:51.569Z,18.48
2018-11-02T16:20:21.292Z,18.34
2018-11-02T16:22:50.945Z,18.49
2018-11-02T16:25:21.749Z,18.47
2018-11-02T16:27:51.397Z,18.42
2018-11-02T16:30:21.300Z,18.40
2018-11-02T16:32:51.126Z,18.38
2018-11-02T16:35:21.040Z,18.21
2018-11-02T16:37:50.830Z,18.15
2018-11-02T16:40:20.560Z,18.06
2018-11-02T16:42:50.501Z,17.98
2018-11-02T16:45:20.086Z,17.90
2018-11-02T16:47:50.045Z,17.90
2018-11-02T16:50:19.748Z,17.78
2018-11-02T16:52:49.321Z,17.75
2018-11-02T16:55:19.129Z,17.76
2018-11-02T16:57:49.056Z,17.70
2018-11-02T17:00:19.834Z,17.74
2018-11-02T17:02:49.795Z,17.56
2018-11-02T17:05:19.612Z,17.61
2018-11-02T17:07:49.368Z,17.53
2018-11-02T17:10:19.146Z,17.40
2018-11-02T17:12:49.097Z,17.33
2018-11-02T17:15:18.766Z,17.14
2018-11-02T17:17:48.409Z,17.03
2018-11-02T17:20:18.812Z,16.95
2018-11-02T17:22:48.403Z,16.90
2018-11-02T17:25:18.033Z,16.96
2018-11-02T17:27:47.420Z,16.79
2018-11-02T17:30:20.531Z,16.68
2018-11-02T17:32:50.367Z,16.67
2018-11-02T17:35:20.137Z,16.68
2018-11-02T17:37:50.055Z,16.56
2018-11-02T17:40:19.775Z,16.49
2018-11-02T17:42:49.354Z,16.46
2018-11-02T17:45:18.882Z,16.51
2018-11-02T17:47:48.765Z,16.40
2018-11-02T17:50:18.010Z,16.32
2018-11-02T17:52:47.755Z,16.35
2018-11-02T17:55:17.630Z,16.28
2018-11-02T17:57:47.242Z,16.16
2018-11-02T18:00:16.850Z,16.09
2018-11-02T18:02:46.241Z,16.03
2018-11-02T18:05:15.720Z,15.96
2018-11-02T18:07:45.648Z,15.88
2018-11-02T18:10:15.177Z,15.82
2018-11-02T18:12:45.546Z,15.78
2018-11-02T18:15:15.114Z,15.73
2018-11-02T18:17:44.499Z,15.60
2018-11-02T18:20:15.631Z,15.52
2018-11-02T18:22:44.993Z,15.52
2018-11-02T18:25:14.654Z,15.40
2018-11-02T18:27:44.365Z,15.43
2018-11-02T18:30:13.923Z,15.23
2018-11-02T18:32:43.745Z,15.31
2018-11-02T18:35:13.519Z,15.28
2018-11-02T18:37:43.423Z,15.29
2018-11-02T18:40:13.940Z,15.21
2018-11-02T18:42:43.904Z,15.18
2018-11-02T18:45:14.834Z,15.12
2018-11-02T18:47:49.668Z,15.05
2018-11-02T18:50:20.799Z,15.06
2018-11-02T18:52:51.093Z,14.98
2018-11-02T18:55:21.225Z,14.88
2018-11-02T18:57:51.201Z,14.89
2018-11-02T19:00:21.149Z,14.84
2018-11-02T19:02:51.129Z,14.76
2018-11-02T19:05:20.998Z,14.57
2018-11-02T19:07:50.925Z,14.62
2018-11-02T19:10:20.697Z,14.56
2018-11-02T19:12:50.633Z,14.38
2018-11-02T19:15:20.895Z,14.47
2018-11-02T19:17:50.990Z,14.31
2018-11-02T19:20:22.080Z,14.17
2018-11-02T19:22:51.822Z,14.20
2018-11-02T19:25:21.570Z,14.17
2018-11-02T19:27:51.408Z,14.12
2018-11-02T19:30:21.567Z,14.12
2018-11-02T19:32:51.867Z,14.02
2018-11-02T19:35:21.742Z,14.02
2018-11-02T19:37:51.334Z,13.89
2018-11-02T19:40:21.415Z,13.79
2018-11-02T19:42:51.237Z,13.81
2018-11-02T19:45:21.558Z,13.79
2018-11-02T19:47:55.038Z,13.76
2018-11-02T19:50:25.168Z,13.86
2018-11-02T19:52:54.958Z,13.83
2018-11-02T19:55:24.752Z,13.70
2018-11-02T19:57:54.719Z,13.48
2018-11-02T20:00:24.668Z,13.37
2018-11-02T20:02:54.909Z,13.41
2018-11-02T20:05:24.909Z,13.41
2018-11-02T20:07:54.713Z,13.29
2018-11-02T20:10:24.690Z,13.23
2018-11-02T20:12:54.489Z,13.23
2018-11-02T20:15:24.278Z,13.28
2018-11-02T20:17:54.883Z,13.02
2018-11-02T20:20:24.810Z,12.80
2018-11-02T20:22:54.764Z,12.96
2018-11-02T20:25:24.270Z,12.97
2018-11-02T20:27:53.917Z,13.01
2018-11-02T20:30:23.594Z,12.99
2018-11-02T20:32:53.358Z,12.98
2018-11-02T20:35:23.338Z,12.86
2018-11-02T20:37:53.199Z,12.84
2018-11-02T20:40:23.013Z,12.83
2018-11-02T20:42:53.121Z,12.78
2018-11-02T20:45:22.995Z,12.75
2018-11-02T20:47:55.018Z,12.74
2018-11-02T20:50:24.676Z,12.54
2018-11-02T20:52:54.634Z,12.60
2018-11-02T20:55:24.445Z,12.68
2018-11-02T20:57:54.414Z,12.64
2018-11-02T21:00:24.999Z,12.59
2018-11-02T21:02:55.012Z,12.55
2018-11-02T21:05:24.855Z,12.50
2018-11-02T21:07:54.588Z,12.56
2018-11-02T21:10:24.634Z,12.53
2018-11-02T21:12:54.500Z,12.48
2018-11-02T21:15:25.190Z,12.40
2018-11-02T21:17:55.251Z,12.40
2018-11-02T21:20:25.972Z,12.34
2018-11-02T21:22:55.747Z,12.33
2018-11-02T21:25:25.479Z,12.40
2018-11-02T21:27:55.335Z,12.42
2018-11-02T21:30:26.265Z,12.44
2018-11-02T21:32:56.743Z,12.34
2018-11-02T21:35:26.749Z,12.36
2018-11-02T21:37:56.693Z,12.27
2018-11-02T21:40:26.694Z,12.23
2018-11-02T21:42:56.535Z,12.18
2018-11-02T21:45:26.566Z,12.15
2018-11-02T21:47:56.433Z,12.24
2018-11-02T21:50:26.246Z,12.22
2018-11-02T21:52:56.182Z,12.20
2018-11-02T21:55:26.077Z,12.20
2018-11-02T21:57:56.335Z,12.19
2018-11-02T22:00:26.278Z,12.21
2018-11-02T22:02:56.064Z,12.17
2018-11-02T22:05:25.977Z,12.23
2018-11-02T22:07:55.682Z,12.07
2018-11-02T22:10:25.598Z,12.10
2018-11-02T22:12:55.555Z,12.14
2018-11-02T22:15:25.404Z,12.09
2018-11-02T22:17:55.318Z,11.98
2018-11-02T22:20:25.254Z,12.05
2018-11-02T22:22:54.975Z,12.06
2018-11-02T22:25:24.744Z,12.01
2018-11-02T22:27:54.525Z,12.03
2018-11-02T22:30:24.508Z,11.92
2018-11-02T22:32:54.451Z,11.87
2018-11-02T22:35:24.590Z,11.89
2018-11-02T22:37:54.309Z,11.88
2018-11-02T22:40:24.103Z,11.97
2018-11-02T22:42:53.872Z,11.87
2018-11-02T22:45:23.620Z,11.84
2018-11-02T22:47:59.116Z,11.99
2018-11-02T22:50:28.940Z,11.98
2018-11-02T22:52:58.671Z,11.89
2018-11-02T22:55:28.575Z,11.90
2018-11-02T22:57:58.435Z,11.82
2018-11-02T23:00:28.897Z,11.80
2018-11-02T23:02:58.707Z,11.81
2018-11-02T23:05:28.763Z,11.77
2018-11-02T23:07:58.561Z,11.80
2018-11-02T23:10:28.590Z,11.71
2018-11-02T23:12:58.509Z,11.72
2018-11-02T23:15:28.483Z,11.68
2018-11-02T23:17:58.317Z,11.72
2018-11-02T23:20:28.026Z,11.71
2018-11-02T23:22:58.026Z,11.65
2018-11-02T23:25:27.981Z,11.64
2018-11-02T23:27:57.704Z,11.56
2018-11-02T23:30:27.525Z,11.60
2018-11-02T23:32:57.310Z,11.59
2018-11-02T23:35:27.121Z,11.59
2018-11-02T23:37:56.907Z,11.58
2018-11-02T23:40:26.754Z,11.58
2018-11-02T23:42:56.749Z,11.56
2018-11-02T23:45:26.466Z,11.52
2018-11-02T23:47:57.410Z,11.47
2018-11-02T23:50:27.755Z,11.43
2018-11-02T23:52:57.636Z,11.37
2018-11-02T23:55:27.589Z,11.35
2018-11-02T23:57:57.622Z,11.38
